sensor_id;sensor_type;location;lat;lon;timestamp;pressure;altitude;pressure_sealevel;temperature;humidity
48846;BME280;34665;51.886;5.436;2023-03-25T00:00:54;99983.31;;;19.55;61.21
48846;BME280;34665;51.886;5.436;2023-03-25T00:03:22;99985.66;;;19.77;60.73
48846;BME280;34665;51.886;5.436;2023-03-25T00:05:48;99997.44;;;20.17;61.08
48846;BME280;34665;51.886;5.436;2023-03-25T00:08:14;99978.59;;;19.86;60.37
48846;BME280;34665;51.886;5.436;2023-03-25T00:10:40;99974.19;;;20.01;60.32
48846;BME280;34665;51.886;5.436;2023-03-25T00:13:05;99983.22;;;21.78;61.07
48846;BME280;34665;51.886;5.436;2023-03-25T00:15:32;99987.13;;;19.54;63.26
48846;BME280;34665;51.886;5.436;2023-03-25T00:17:58;99974.91;;;19.56;64.24
48846;BME280;34665;51.886;5.436;2023-03-25T00:20:23;99982.00;;;19.42;65.06
48846;BME280;34665;51.886;5.436;2023-03-25T00:22:49;99987.34;;;19.68;63.28
48846;BME280;34665;51.886;5.436;2023-03-25T00:25:14;99990.72;;;19.28;66.29
48846;BME280;34665;51.886;5.436;2023-03-25T00:27:43;99976.44;;;19.78;64.58
48846;BME280;34665;51.886;5.436;2023-03-25T00:30:10;99979.25;;;19.62;63.68
48846;BME280;34665;51.886;5.436;2023-03-25T00:32:35;99970.44;;;19.81;63.44
48846;BME280;34665;51.886;5.436;2023-03-25T00:35:01;99971.72;;;20.79;57.63
48846;BME280;34665;51.886;5.436;2023-03-25T00:37:26;99966.91;;;18.94;65.86
48846;BME280;34665;51.886;5.436;2023-03-25T00:39:52;99955.25;;;18.99;68.66
48846;BME280;34665;51.886;5.436;2023-03-25T00:42:17;99968.91;;;19.65;65.69
48846;BME280;34665;51.886;5.436;2023-03-25T00:44:51;99971.41;;;19.45;65.28
48846;BME280;34665;51.886;5.436;2023-03-25T00:47:17;99964.22;;;18.73;67.66
48846;BME280;34665;51.886;5.436;2023-03-25T00:49:45;99956.63;;;18.65;67.93
48846;BME280;34665;51.886;5.436;2023-03-25T00:52:10;99967.97;;;18.88;66.49
48846;BME280;34665;51.886;5.436;2023-03-25T00:54:36;99954.19;;;18.84;67.66
48846;BME280;34665;51.886;5.436;2023-03-25T00:57:02;99966.06;;;19.30;65.74
48846;BME280;34665;51.886;5.436;2023-03-25T00:59:27;99968.50;;;19.11;65.64
48846;BME280;34665;51.886;5.436;2023-03-25T01:01:52;99963.13;;;18.69;65.84
48846;BME280;34665;51.886;5.436;2023-03-25T01:04:20;99961.50;;;18.94;63.92
48846;BME280;34665;51.886;5.436;2023-03-25T01:06:46;99950.41;;;18.59;66.72
48846;BME280;34665;51.886;5.436;2023-03-25T01:09:17;99955.75;;;18.02;66.70
48846;BME280;34665;51.886;5.436;2023-03-25T01:11:43;99951.47;;;18.89;63.93
48846;BME280;34665;51.886;5.436;2023-03-25T01:14:17;99984.53;;;19.07;63.16
48846;BME280;34665;51.886;5.436;2023-03-25T01:16:43;99954.94;;;19.26;63.37
48846;BME280;34665;51.886;5.436;2023-03-25T01:19:09;99957.72;;;19.00;62.66
48846;BME280;34665;51.886;5.436;2023-03-25T01:21:34;99964.44;;;19.18;62.30
48846;BME280;34665;51.886;5.436;2023-03-25T01:24:02;99962.06;;;18.70;63.55
48846;BME280;34665;51.886;5.436;2023-03-25T01:26:27;99972.34;;;19.91;59.48
48846;BME280;34665;51.886;5.436;2023-03-25T01:28:52;99962.81;;;20.73;58.89
48846;BME280;34665;51.886;5.436;2023-03-25T01:31:18;99975.03;;;19.20;60.48
48846;BME280;34665;51.886;5.436;2023-03-25T01:33:44;99982.50;;;19.54;60.54
48846;BME280;34665;51.886;5.436;2023-03-25T01:36:09;99961.63;;;20.15;56.80
48846;BME280;34665;51.886;5.436;2023-03-25T01:38:38;99959.56;;;20.37;61.75
48846;BME280;34665;51.886;5.436;2023-03-25T01:41:04;99956.13;;;19.70;61.71
48846;BME280;34665;51.886;5.436;2023-03-25T01:43:31;99970.16;;;18.81;63.24
48846;BME280;34665;51.886;5.436;2023-03-25T01:45:57;99962.03;;;18.65;65.56
48846;BME280;34665;51.886;5.436;2023-03-25T01:50:52;99964.19;;;18.63;64.90
48846;BME280;34665;51.886;5.436;2023-03-25T01:53:18;99957.69;;;18.85;69.05
48846;BME280;34665;51.886;5.436;2023-03-25T01:55:44;99969.47;;;17.90;72.45
48846;BME280;34665;51.886;5.436;2023-03-25T01:58:10;99956.63;;;19.01;70.31
48846;BME280;34665;51.886;5.436;2023-03-25T02:00:38;99956.88;;;18.95;70.85
48846;BME280;34665;51.886;5.436;2023-03-25T02:03:04;99963.09;;;18.85;68.65
48846;BME280;34665;51.886;5.436;2023-03-25T02:08:03;99946.84;;;19.16;65.93
48846;BME280;34665;51.886;5.436;2023-03-25T02:10:29;99943.34;;;18.69;69.62
48846;BME280;34665;51.886;5.436;2023-03-25T02:12:56;99948.66;;;17.91;74.25
48846;BME280;34665;51.886;5.436;2023-03-25T02:15:22;99955.25;;;18.78;74.81
48846;BME280;34665;51.886;5.436;2023-03-25T02:18:11;99950.03;;;19.33;72.86
48846;BME280;34665;51.886;5.436;2023-03-25T02:20:55;99932.53;;;18.43;78.65
48846;BME280;34665;51.886;5.436;2023-03-25T02:38:59;99944.97;;;18.23;83.38
48846;BME280;34665;51.886;5.436;2023-03-25T02:41:30;99943.63;;;18.46;83.76
48846;BME280;34665;51.886;5.436;2023-03-25T02:44:11;99938.63;;;17.86;87.48
48846;BME280;34665;51.886;5.436;2023-03-25T02:46:46;99938.06;;;20.80;83.01
48846;BME280;34665;51.886;5.436;2023-03-25T02:49:16;99921.19;;;17.46;95.76
48846;BME280;34665;51.886;5.436;2023-03-25T02:51:45;99922.47;;;18.02;93.67
48846;BME280;34665;51.886;5.436;2023-03-25T02:54:14;99930.56;;;19.21;83.55
48846;BME280;34665;51.886;5.436;2023-03-25T02:56:41;99928.91;;;17.90;90.57
48846;BME280;34665;51.886;5.436;2023-03-25T02:59:09;99928.72;;;18.33;87.90
48846;BME280;34665;51.886;5.436;2023-03-25T03:01:39;99921.88;;;17.95;95.04
48846;BME280;34665;51.886;5.436;2023-03-25T03:04:05;99918.56;;;17.61;96.52
48846;BME280;34665;51.886;5.436;2023-03-25T03:06:30;99924.63;;;18.00;94.17
48846;BME280;34665;51.886;5.436;2023-03-25T03:11:42;99928.59;;;20.03;72.95
48846;BME280;34665;51.886;5.436;2023-03-25T03:16:48;99929.00;;;18.99;81.54
48846;BME280;34665;51.886;5.436;2023-03-25T03:19:41;99929.47;;;19.22;78.62
48846;BME280;34665;51.886;5.436;2023-03-25T03:22:18;99921.91;;;18.00;89.04
48846;BME280;34665;51.886;5.436;2023-03-25T03:24:48;99924.38;;;18.79;84.16
48846;BME280;34665;51.886;5.436;2023-03-25T03:29:53;99921.88;;;17.84;91.41
48846;BME280;34665;51.886;5.436;2023-03-25T03:37:13;99925.19;;;18.12;86.98
48846;BME280;34665;51.886;5.436;2023-03-25T03:39:40;99918.44;;;18.15;87.90
48846;BME280;34665;51.886;5.436;2023-03-25T03:42:17;99917.09;;;18.64;83.96
48846;BME280;34665;51.886;5.436;2023-03-25T03:44:46;99939.81;;;18.37;83.02
48846;BME280;34665;51.886;5.436;2023-03-25T03:47:15;99929.75;;;20.66;76.53
48846;BME280;34665;51.886;5.436;2023-03-25T03:49:46;99932.13;;;17.77;87.30
48846;BME280;34665;51.886;5.436;2023-03-25T03:52:15;99903.34;;;17.45;94.46
48846;BME280;34665;51.886;5.436;2023-03-25T03:54:53;99914.66;;;18.42;86.49
48846;BME280;34665;51.886;5.436;2023-03-25T04:02:26;99909.88;;;17.54;93.29
48846;BME280;34665;51.886;5.436;2023-03-25T04:04:52;99906.66;;;17.68;92.44
48846;BME280;34665;51.886;5.436;2023-03-25T04:07:22;99908.19;;;17.43;91.21
48846;BME280;34665;51.886;5.436;2023-03-25T04:12:21;99906.38;;;17.59;94.30
48846;BME280;34665;51.886;5.436;2023-03-25T04:14:48;99909.75;;;17.28;97.08
48846;BME280;34665;51.886;5.436;2023-03-25T04:17:14;99906.91;;;17.02;100.00
48846;BME280;34665;51.886;5.436;2023-03-25T04:19:39;99905.75;;;20.09;82.90
48846;BME280;34665;51.886;5.436;2023-03-25T04:22:05;99904.00;;;19.84;83.56
48846;BME280;34665;51.886;5.436;2023-03-25T04:24:31;99910.25;;;17.20;98.25
48846;BME280;34665;51.886;5.436;2023-03-25T04:26:57;99890.38;;;17.52;95.52
48846;BME280;34665;51.886;5.436;2023-03-25T04:29:30;99913.47;;;19.31;83.64
48846;BME280;34665;51.886;5.436;2023-03-25T04:31:56;99901.72;;;21.49;72.70
48846;BME280;34665;51.886;5.436;2023-03-25T04:34:22;99902.47;;;18.70;78.50
48846;BME280;34665;51.886;5.436;2023-03-25T04:36:47;99908.81;;;17.55;89.42
48846;BME280;34665;51.886;5.436;2023-03-25T04:39:15;99905.75;;;17.41;91.81
48846;BME280;34665;51.886;5.436;2023-03-25T04:41:47;99913.78;;;19.14;81.13
48846;BME280;34665;51.886;5.436;2023-03-25T04:44:12;99902.97;;;19.03;78.77
48846;BME280;34665;51.886;5.436;2023-03-25T04:46:38;99923.81;;;18.98;79.71
48846;BME280;34665;51.886;5.436;2023-03-25T04:49:04;99905.28;;;24.54;71.93
48846;BME280;34665;51.886;5.436;2023-03-25T04:51:38;99903.97;;;20.29;68.34
48846;BME280;34665;51.886;5.436;2023-03-25T04:54:06;99910.28;;;18.87;76.14
48846;BME280;34665;51.886;5.436;2023-03-25T04:56:31;99895.16;;;18.71;78.03
48846;BME280;34665;51.886;5.436;2023-03-25T04:58:57;99902.75;;;18.58;78.10
48846;BME280;34665;51.886;5.436;2023-03-25T05:01:26;99895.94;;;18.87;77.82
48846;BME280;34665;51.886;5.436;2023-03-25T05:03:58;99895.72;;;18.62;76.88
48846;BME280;34665;51.886;5.436;2023-03-25T05:06:33;99902.47;;;18.44;79.05
48846;BME280;34665;51.886;5.436;2023-03-25T05:08:59;99911.97;;;18.42;80.92
48846;BME280;34665;51.886;5.436;2023-03-25T05:11:26;99912.78;;;18.27;80.82
48846;BME280;34665;51.886;5.436;2023-03-25T05:13:52;99910.22;;;17.73;83.16
48846;BME280;34665;51.886;5.436;2023-03-25T05:16:18;99911.06;;;17.89;85.01
48846;BME280;34665;51.886;5.436;2023-03-25T05:18:43;99913.28;;;18.18;82.47
48846;BME280;34665;51.886;5.436;2023-03-25T05:21:09;99930.59;;;18.17;82.04
48846;BME280;34665;51.886;5.436;2023-03-25T05:23:35;99917.06;;;18.17;80.77
48846;BME280;34665;51.886;5.436;2023-03-25T05:26:01;99923.53;;;18.01;83.27
48846;BME280;34665;51.886;5.436;2023-03-25T05:28:28;99920.56;;;18.08;82.41
48846;BME280;34665;51.886;5.436;2023-03-25T05:30:55;99911.69;;;18.33;82.06
48846;BME280;34665;51.886;5.436;2023-03-25T05:33:20;99917.91;;;18.65;80.84
48846;BME280;34665;51.886;5.436;2023-03-25T05:35:46;99931.69;;;18.16;86.29
48846;BME280;34665;51.886;5.436;2023-03-25T05:38:12;99927.41;;;18.46;85.14
48846;BME280;34665;51.886;5.436;2023-03-25T05:40:38;99920.31;;;18.04;85.54
48846;BME280;34665;51.886;5.436;2023-03-25T05:43:04;99928.06;;;17.80;87.22
48846;BME280;34665;51.886;5.436;2023-03-25T05:45:32;99928.91;;;17.96;86.70
48846;BME280;34665;51.886;5.436;2023-03-25T05:48:00;99932.78;;;18.77;81.52
48846;BME280;34665;51.886;5.436;2023-03-25T05:50:25;99940.31;;;19.27;79.27
48846;BME280;34665;51.886;5.436;2023-03-25T05:52:53;99939.38;;;19.58;76.79
48846;BME280;34665;51.886;5.436;2023-03-25T05:55:20;99938.75;;;19.00;79.10
48846;BME280;34665;51.886;5.436;2023-03-25T05:57:46;99943.06;;;19.01;79.59
48846;BME280;34665;51.886;5.436;2023-03-25T06:00:13;99937.13;;;18.32;82.35
48846;BME280;34665;51.886;5.436;2023-03-25T06:02:40;99941.97;;;19.08;79.61
48846;BME280;34665;51.886;5.436;2023-03-25T06:05:13;99957.94;;;19.14;77.02
48846;BME280;34665;51.886;5.436;2023-03-25T06:07:40;99944.69;;;19.18;77.64
48846;BME280;34665;51.886;5.436;2023-03-25T06:10:07;99963.56;;;19.44;74.40
48846;BME280;34665;51.886;5.436;2023-03-25T06:12:33;99965.66;;;17.81;81.86
48846;BME280;34665;51.886;5.436;2023-03-25T06:15:04;99967.84;;;17.79;81.18
48846;BME280;34665;51.886;5.436;2023-03-25T06:17:30;99963.06;;;18.02;80.67
48846;BME280;34665;51.886;5.436;2023-03-25T06:19:57;99947.84;;;17.85;81.27
48846;BME280;34665;51.886;5.436;2023-03-25T06:22:24;99950.13;;;18.40;79.60
48846;BME280;34665;51.886;5.436;2023-03-25T06:24:51;99977.47;;;18.54;77.28
48846;BME280;34665;51.886;5.436;2023-03-25T06:27:18;99971.88;;;17.23;81.48
48846;BME280;34665;51.886;5.436;2023-03-25T06:29:43;99951.38;;;17.96;80.12
48846;BME280;34665;51.886;5.436;2023-03-25T06:32:13;99967.16;;;18.20;78.02
48846;BME280;34665;51.886;5.436;2023-03-25T06:34:39;99978.13;;;17.87;76.84
48846;BME280;34665;51.886;5.436;2023-03-25T06:37:06;99964.72;;;18.34;76.48
48846;BME280;34665;51.886;5.436;2023-03-25T06:39:32;99972.88;;;18.75;74.18
48846;BME280;34665;51.886;5.436;2023-03-25T06:42:01;99978.81;;;18.62;73.61
48846;BME280;34665;51.886;5.436;2023-03-25T06:44:43;99963.66;;;18.66;72.49
48846;BME280;34665;51.886;5.436;2023-03-25T06:47:30;99971.22;;;18.28;73.61
48846;BME280;34665;51.886;5.436;2023-03-25T06:49:55;99961.56;;;17.68;77.43
48846;BME280;34665;51.886;5.436;2023-03-25T06:52:21;99999.66;;;18.41;72.06
48846;BME280;34665;51.886;5.436;2023-03-25T06:54:47;99978.84;;;18.46;73.87
48846;BME280;34665;51.886;5.436;2023-03-25T06:57:12;99982.19;;;17.90;79.19
48846;BME280;34665;51.886;5.436;2023-03-25T06:59:37;99970.63;;;18.05;79.41
48846;BME280;34665;51.886;5.436;2023-03-25T07:02:03;99984.22;;;17.57;81.51
48846;BME280;34665;51.886;5.436;2023-03-25T07:04:29;99977.72;;;18.32;80.04
48846;BME280;34665;51.886;5.436;2023-03-25T07:06:54;99976.53;;;17.38;83.23
48846;BME280;34665;51.886;5.436;2023-03-25T07:09:20;99974.19;;;17.52;82.88
48846;BME280;34665;51.886;5.436;2023-03-25T07:11:45;100001.41;;;17.94;81.79
48846;BME280;34665;51.886;5.436;2023-03-25T07:14:10;100009.28;;;18.00;79.32
48846;BME280;34665;51.886;5.436;2023-03-25T07:16:36;99963.72;;;17.66;82.96
48846;BME280;34665;51.886;5.436;2023-03-25T07:19:02;99969.09;;;17.61;82.97
48846;BME280;34665;51.886;5.436;2023-03-25T07:21:27;99990.47;;;18.42;81.28
48846;BME280;34665;51.886;5.436;2023-03-25T07:23:53;100005.72;;;17.89;85.99
48846;BME280;34665;51.886;5.436;2023-03-25T07:26:18;100026.38;;;18.06;88.49
48846;BME280;34665;51.886;5.436;2023-03-25T07:28:44;100002.06;;;17.63;92.38
48846;BME280;34665;51.886;5.436;2023-03-25T07:31:12;99996.53;;;17.96;94.15
48846;BME280;34665;51.886;5.436;2023-03-25T07:33:38;100009.47;;;17.83;89.89
48846;BME280;34665;51.886;5.436;2023-03-25T07:36:04;100020.63;;;17.44;96.54
48846;BME280;34665;51.886;5.436;2023-03-25T07:38:30;100003.25;;;17.29;100.00
48846;BME280;34665;51.886;5.436;2023-03-25T07:40:56;100002.03;;;17.47;100.00
48846;BME280;34665;51.886;5.436;2023-03-25T07:43:21;100004.78;;;17.10;100.00
48846;BME280;34665;51.886;5.436;2023-03-25T07:45:52;100002.56;;;18.03;100.00
48846;BME280;34665;51.886;5.436;2023-03-25T07:48:18;100008.66;;;17.83;100.00
48846;BME280;34665;51.886;5.436;2023-03-25T07:50:43;99986.66;;;17.53;100.00
48846;BME280;34665;51.886;5.436;2023-03-25T07:53:10;100006.47;;;17.69;100.00
48846;BME280;34665;51.886;5.436;2023-03-25T07:55:35;100025.41;;;17.74;99.63
48846;BME280;34665;51.886;5.436;2023-03-25T07:58:01;100018.69;;;17.87;100.00
48846;BME280;34665;51.886;5.436;2023-03-25T08:00:27;100009.72;;;17.76;100.00
48846;BME280;34665;51.886;5.436;2023-03-25T08:02:53;100013.97;;;18.26;99.42
48846;BME280;34665;51.886;5.436;2023-03-25T08:05:19;100012.13;;;18.52;95.75
48846;BME280;34665;51.886;5.436;2023-03-25T08:07:48;100011.84;;;18.59;96.86
48846;BME280;34665;51.886;5.436;2023-03-25T08:10:14;100015.84;;;18.20;97.50
48846;BME280;34665;51.886;5.436;2023-03-25T08:12:40;100038.00;;;17.53;100.00
48846;BME280;34665;51.886;5.436;2023-03-25T08:15:06;100024.63;;;19.05;95.52
48846;BME280;34665;51.886;5.436;2023-03-25T08:17:32;100021.50;;;18.13;97.21
48846;BME280;34665;51.886;5.436;2023-03-25T08:19:58;100051.69;;;17.89;99.36
48846;BME280;34665;51.886;5.436;2023-03-25T08:22:25;100037.38;;;17.89;100.00
48846;BME280;34665;51.886;5.436;2023-03-25T08:24:50;100022.06;;;18.15;100.00
48846;BME280;34665;51.886;5.436;2023-03-25T08:27:15;100022.16;;;18.46;97.33
48846;BME280;34665;51.886;5.436;2023-03-25T08:29:41;100048.97;;;17.84;100.00
48846;BME280;34665;51.886;5.436;2023-03-25T08:32:06;100039.69;;;18.33;100.00
48846;BME280;34665;51.886;5.436;2023-03-25T08:34:31;100026.47;;;18.53;94.87
48846;BME280;34665;51.886;5.436;2023-03-25T08:37:03;100038.81;;;18.07;98.60
48846;BME280;34665;51.886;5.436;2023-03-25T08:39:29;100037.78;;;18.24;100.00
48846;BME280;34665;51.886;5.436;2023-03-25T08:42:01;100029.31;;;18.04;100.00
48846;BME280;34665;51.886;5.436;2023-03-25T08:44:26;100024.31;;;18.55;99.08
48846;BME280;34665;51.886;5.436;2023-03-25T08:46:52;100023.19;;;18.40;98.96
48846;BME280;34665;51.886;5.436;2023-03-25T08:49:17;100018.94;;;17.81;100.00
48846;BME280;34665;51.886;5.436;2023-03-25T08:51:42;100031.91;;;18.63;97.37
48846;BME280;34665;51.886;5.436;2023-03-25T08:54:08;100020.53;;;18.71;98.80
48846;BME280;34665;51.886;5.436;2023-03-25T08:56:34;100041.88;;;17.73;98.88
48846;BME280;34665;51.886;5.436;2023-03-25T08:58:59;100051.69;;;18.74;96.19
48846;BME280;34665;51.886;5.436;2023-03-25T09:01:25;100046.00;;;18.81;92.07
48846;BME280;34665;51.886;5.436;2023-03-25T09:03:51;100030.19;;;19.60;94.00
48846;BME280;34665;51.886;5.436;2023-03-25T09:06:16;100020.53;;;18.51;94.50
48846;BME280;34665;51.886;5.436;2023-03-25T09:08:42;100042.72;;;18.68;95.58
48846;BME280;34665;51.886;5.436;2023-03-25T09:11:07;100030.28;;;18.67;96.50
48846;BME280;34665;51.886;5.436;2023-03-25T09:13:33;100029.75;;;19.12;94.56
48846;BME280;34665;51.886;5.436;2023-03-25T09:15:58;100019.69;;;18.50;92.54
48846;BME280;34665;51.886;5.436;2023-03-25T09:18:24;100046.03;;;19.22;88.28
48846;BME280;34665;51.886;5.436;2023-03-25T09:20:49;100037.59;;;18.98;93.43
48846;BME280;34665;51.886;5.436;2023-03-25T09:23:16;100042.19;;;19.33;100.00
48846;BME280;34665;51.886;5.436;2023-03-25T09:25:41;100047.59;;;19.49;100.00
48846;BME280;34665;51.886;5.436;2023-03-25T09:28:07;100053.75;;;18.20;100.00
48846;BME280;34665;51.886;5.436;2023-03-25T09:30:32;100050.63;;;19.01;97.83
48846;BME280;34665;51.886;5.436;2023-03-25T09:32:58;100048.28;;;18.10;100.00
48846;BME280;34665;51.886;5.436;2023-03-25T09:35:24;100047.94;;;19.27;100.00
48846;BME280;34665;51.886;5.436;2023-03-25T09:37:50;100074.72;;;20.75;97.23
48846;BME280;34665;51.886;5.436;2023-03-25T09:40:15;100091.28;;;19.22;99.74
48846;BME280;34665;51.886;5.436;2023-03-25T09:50:27;100046.56;;;20.16;92.06
48846;BME280;34665;51.886;5.436;2023-03-25T09:52:55;100098.06;;;19.03;91.17
48846;BME280;34665;51.886;5.436;2023-03-25T09:55:24;100048.97;;;19.26;97.25
48846;BME280;34665;51.886;5.436;2023-03-25T09:57:50;100064.38;;;19.67;96.45
48846;BME280;34665;51.886;5.436;2023-03-25T10:00:21;100062.53;;;18.84;96.80
48846;BME280;34665;51.886;5.436;2023-03-25T10:03:00;100067.81;;;19.88;94.68
48846;BME280;34665;51.886;5.436;2023-03-25T10:05:38;100058.47;;;20.25;89.55
48846;BME280;34665;51.886;5.436;2023-03-25T10:08:16;100055.09;;;20.89;87.12
48846;BME280;34665;51.886;5.436;2023-03-25T10:10:47;100061.69;;;19.61;90.32
48846;BME280;34665;51.886;5.436;2023-03-25T10:15:58;100077.94;;;20.43;87.64
48846;BME280;34665;51.886;5.436;2023-03-25T10:26:03;100065.88;;;20.09;90.66
48846;BME280;34665;51.886;5.436;2023-03-25T10:28:32;100087.63;;;19.99;81.86
48846;BME280;34665;51.886;5.436;2023-03-25T10:30:58;100070.22;;;20.05;83.53
48846;BME280;34665;51.886;5.436;2023-03-25T10:33:35;100072.19;;;20.95;80.52
48846;BME280;34665;51.886;5.436;2023-03-25T10:36:01;100097.16;;;19.91;79.14
48846;BME280;34665;51.886;5.436;2023-03-25T10:38:27;100120.75;;;19.90;81.35
48846;BME280;34665;51.886;5.436;2023-03-25T10:43:33;100113.72;;;19.74;78.27
48846;BME280;34665;51.886;5.436;2023-03-25T10:46:11;100074.97;;;20.79;78.59
48846;BME280;34665;51.886;5.436;2023-03-25T10:48:38;100082.56;;;21.22;74.97
48846;BME280;34665;51.886;5.436;2023-03-25T10:51:11;100107.06;;;20.32;74.42
48846;BME280;34665;51.886;5.436;2023-03-25T10:53:38;100090.22;;;20.30;76.82
48846;BME280;34665;51.886;5.436;2023-03-25T10:56:12;100085.50;;;19.75;77.86
48846;BME280;34665;51.886;5.436;2023-03-25T10:58:38;100100.31;;;20.69;75.11
48846;BME280;34665;51.886;5.436;2023-03-25T11:01:11;100099.66;;;19.46;75.91
48846;BME280;34665;51.886;5.436;2023-03-25T11:03:38;100109.63;;;19.97;73.94
48846;BME280;34665;51.886;5.436;2023-03-25T11:06:05;100098.41;;;20.70;72.46
48846;BME280;34665;51.886;5.436;2023-03-25T11:08:32;100087.75;;;20.84;71.65
48846;BME280;34665;51.886;5.436;2023-03-25T11:10:58;100104.25;;;20.42;69.38
48846;BME280;34665;51.886;5.436;2023-03-25T11:13:27;100111.38;;;20.78;72.17
48846;BME280;34665;51.886;5.436;2023-03-25T11:15:53;100145.31;;;20.30;66.77
48846;BME280;34665;51.886;5.436;2023-03-25T11:18:23;100127.41;;;21.54;66.66
48846;BME280;34665;51.886;5.436;2023-03-25T11:20:52;100111.41;;;20.23;67.05
48846;BME280;34665;51.886;5.436;2023-03-25T11:26:22;100113.91;;;20.09;67.90
48846;BME280;34665;51.886;5.436;2023-03-25T11:29:11;100121.19;;;20.24;69.61
48846;BME280;34665;51.886;5.436;2023-03-25T11:31:36;100130.69;;;20.26;65.50
48846;BME280;34665;51.886;5.436;2023-03-25T11:34:12;100128.47;;;22.56;63.65
48846;BME280;34665;51.886;5.436;2023-03-25T11:41:48;100121.19;;;22.70;59.14
48846;BME280;34665;51.886;5.436;2023-03-25T11:44:26;100141.31;;;23.60;57.56
48846;BME280;34665;51.886;5.436;2023-03-25T11:47:03;100134.59;;;22.67;58.28
48846;BME280;34665;51.886;5.436;2023-03-25T11:49:29;100129.28;;;23.61;57.68
48846;BME280;34665;51.886;5.436;2023-03-25T11:52:01;100127.63;;;24.07;55.95
48846;BME280;34665;51.886;5.436;2023-03-25T11:54:27;100114.41;;;22.48;57.72
48846;BME280;34665;51.886;5.436;2023-03-25T11:56:53;100119.66;;;22.40;59.35
48846;BME280;34665;51.886;5.436;2023-03-25T11:59:21;100145.63;;;23.14;54.53
48846;BME280;34665;51.886;5.436;2023-03-25T12:01:47;100133.28;;;22.64;53.75
48846;BME280;34665;51.886;5.436;2023-03-25T12:06:51;100106.63;;;22.61;53.42
48846;BME280;34665;51.886;5.436;2023-03-25T12:09:17;100118.47;;;21.48;55.80
48846;BME280;34665;51.886;5.436;2023-03-25T12:11:48;100109.81;;;21.76;54.87
48846;BME280;34665;51.886;5.436;2023-03-25T12:19:56;100108.50;;;22.41;53.95
48846;BME280;34665;51.886;5.436;2023-03-25T12:22:36;100149.97;;;22.76;53.01
48846;BME280;34665;51.886;5.436;2023-03-25T12:27:58;100146.72;;;26.17;47.89
48846;BME280;34665;51.886;5.436;2023-03-25T12:30:33;100115.31;;;25.20;47.65
48846;BME280;34665;51.886;5.436;2023-03-25T12:38:14;100118.00;;;22.82;51.65
48846;BME280;34665;51.886;5.436;2023-03-25T12:40:46;100115.81;;;24.99;49.33
48846;BME280;34665;51.886;5.436;2023-03-25T13:10:55;100128.50;;;22.31;53.94
48846;BME280;34665;51.886;5.436;2023-03-25T13:13:22;100133.84;;;23.66;51.08
48846;BME280;34665;51.886;5.436;2023-03-25T13:16:08;100141.38;;;23.88;50.58
48846;BME280;34665;51.886;5.436;2023-03-25T13:18:38;100143.72;;;24.23;49.04
48846;BME280;34665;51.886;5.436;2023-03-25T13:23:30;100118.59;;;23.65;48.49
48846;BME280;34665;51.886;5.436;2023-03-25T13:26:08;100142.84;;;24.50;48.16
48846;BME280;34665;51.886;5.436;2023-03-25T13:31:14;100156.91;;;23.07;51.07
48846;BME280;34665;51.886;5.436;2023-03-25T13:33:43;100135.31;;;22.91;50.26
48846;BME280;34665;51.886;5.436;2023-03-25T13:36:24;100132.84;;;23.28;50.47
48846;BME280;34665;51.886;5.436;2023-03-25T13:38:51;100135.31;;;23.11;50.83
48846;BME280;34665;51.886;5.436;2023-03-25T13:41:32;100128.91;;;24.88;48.10
48846;BME280;34665;51.886;5.436;2023-03-25T13:44:03;100145.06;;;24.62;47.03
48846;BME280;34665;51.886;5.436;2023-03-25T13:46:35;100140.69;;;24.10;47.84
48846;BME280;34665;51.886;5.436;2023-03-25T13:51:27;100129.13;;;22.23;49.17
48846;BME280;34665;51.886;5.436;2023-03-25T13:59:11;100124.25;;;22.83;49.15
48846;BME280;34665;51.886;5.436;2023-03-25T14:11:48;100169.66;;;23.31;51.10
48846;BME280;34665;51.886;5.436;2023-03-25T14:14:17;100177.38;;;22.66;52.43
48846;BME280;34665;51.886;5.436;2023-03-25T14:16:45;100170.81;;;22.86;52.86
48846;BME280;34665;51.886;5.436;2023-03-25T14:19:13;100159.66;;;23.73;52.31
48846;BME280;34665;51.886;5.436;2023-03-25T14:21:41;100167.44;;;23.14;51.36
48846;BME280;34665;51.886;5.436;2023-03-25T14:26:53;100176.25;;;23.25;50.61
48846;BME280;34665;51.886;5.436;2023-03-25T14:29:30;100158.53;;;22.89;51.06
48846;BME280;34665;51.886;5.436;2023-03-25T14:32:04;100175.03;;;22.78;50.52
48846;BME280;34665;51.886;5.436;2023-03-25T14:34:30;100163.72;;;22.23;51.11
48846;BME280;34665;51.886;5.436;2023-03-25T14:44:30;100183.28;;;23.12;48.63
48846;BME280;34665;51.886;5.436;2023-03-25T14:52:14;100318.84;;;21.18;50.96
48846;BME280;34665;51.886;5.436;2023-03-25T14:54:41;100215.22;;;22.68;49.90
48846;BME280;34665;51.886;5.436;2023-03-25T14:57:17;100184.22;;;22.83;47.57
48846;BME280;34665;51.886;5.436;2023-03-25T14:59:57;100190.53;;;23.55;47.21
48846;BME280;34665;51.886;5.436;2023-03-25T15:02:26;100188.16;;;23.81;47.06
48846;BME280;34665;51.886;5.436;2023-03-25T15:10:12;100195.19;;;23.54;47.03
48846;BME280;34665;51.886;5.436;2023-03-25T15:12:43;100203.84;;;23.89;46.61
48846;BME280;34665;51.886;5.436;2023-03-25T15:15:24;100190.66;;;23.63;46.93
48846;BME280;34665;51.886;5.436;2023-03-25T15:17:50;100199.78;;;23.40;48.10
48846;BME280;34665;51.886;5.436;2023-03-25T15:25:49;100209.75;;;23.30;47.53
48846;BME280;34665;51.886;5.436;2023-03-25T15:28:26;100213.19;;;24.02;46.36
48846;BME280;34665;51.886;5.436;2023-03-25T15:31:09;100213.78;;;23.14;48.13
48846;BME280;34665;51.886;5.436;2023-03-25T15:34:02;100215.19;;;23.97;47.04
48846;BME280;34665;51.886;5.436;2023-03-25T15:36:35;100214.22;;;23.40;47.38
48846;BME280;34665;51.886;5.436;2023-03-25T15:41:44;100229.97;;;22.67;48.52
48846;BME280;34665;51.886;5.436;2023-03-25T15:49:33;100224.03;;;21.81;50.80
48846;BME280;34665;51.886;5.436;2023-03-25T15:52:20;100238.22;;;22.81;49.75